Almeria, Spain

6:00 AM CET on November 29, 2014 (GMT +0100)
Los Molinos | Change Station
CLOSE
Current Station
Personal Weather Station
Location: Almería, ANDALUCíA
Elevation: 112 ft
Nearby Weather Stations

Elev 112 ft 36.85 °N, 2.44 °W | Updated 35 seconds ago

Scattered Clouds
Scattered Clouds
56.5 °F
Feels Like 56.5 °F
N
0.0
Wind Variable Wind from East
Gusts 2.0 mph

Today
High -- | Low -- °F
--% Chance of Precip.
Yesterday
High -- | Low -- °F
Precip. -- in
8:01 AM 5:53 PM
Waxing Crescent, 47% visible
Pressure 29.21 in
Visibility 6.2 miles
Clouds Few 3000 ft
Scattered Clouds 6000 ft
Dew Point 51 °F
Humidity 81%
Rainfall 0.00 in
Snow Depth Not available.
UV 0 out of 12
Pollen Not available.
Air Quality Not available.
Flu Activity Not available.
METAR LEAM 290430Z 33007KT 9999 FEW030 SCT060 14/11 Q0989

More Conditions Fewer Conditions

Pressure 29.21 in
Visibility 6.2 miles
Clouds Few 3000 ft
Scattered Clouds 6000 ft
Dew Point 51 °F
Humidity 81%
Rainfall 0.00 in
Snow Depth Not available.
UV 0 out of 12
Pollen Not available.
Air Quality Not available.
Flu Activity Not available.
METAR LEAM 290430Z 33007KT 9999 FEW030 SCT060 14/11 Q0989

More Conditions Fewer Conditions

10-Day Weather Forecast

Almanac

Astronomy

Nov. 29, 2014 Rise Set
Actual Time
Civil Twilight
Nautical Twilight
Astronomical Twilight
Moon
Length of Visible Light
Length of Day
Tomorrow will be .
, % of the Moon is Illuminated

Today's Extremes

Country Highs Country Lows

Community

WunderPhotos

Upload Photos

1,774,417 photos uploaded!

WunderBlogs® & News

Nearby

Air Quality

  Air Quality AQ Index Pollutant
Not available.

Snow Depth

Station Depth Elevation

Earthquake Activity

City Distance Mag. Time & Date
Minimum magnitude displayed is 2.5.

Coastal Water Temperatures

Place Temperature

Nearby Weather Stations